Time;durP1;ratioP1;P1;durP2;ratioP2;P2;SDS_P1;SDS_P2;PMS_P1;PMS_P2;Temp;Humidity;BMP_temperature;BMP_pressure;BME280_temperature;BME280_humidity;BME280_pressure;Samples;Min_cycle;Max_cycle;Signal;HPM_P1;HPM_P2
2021/06/19 00:00:36;;;;;;;25.58;21.27;;;18.90;99.90;;;;;;5090707;28;20020;-81
2021/06/19 00:03:03;;;;;;;30.48;25.48;;;19.00;99.90;;;;;;5092433;28;20476;-81
2021/06/19 00:05:29;;;;;;;25.15;22.48;;;18.90;99.90;;;;;;5092712;28;20427;-81
2021/06/19 00:07:56;;;;;;;27.17;22.83;;;18.90;99.90;;;;;;5091368;28;20096;-81
2021/06/19 00:10:22;;;;;;;27.67;21.63;;;18.80;99.90;;;;;;5091396;28;20107;-81
2021/06/19 00:12:50;;;;;;;28.48;23.50;;;18.80;99.90;;;;;;5091014;28;20028;-81
2021/06/19 00:15:18;;;;;;;28.27;20.85;;;18.90;99.90;;;;;;5092651;28;20016;-81
2021/06/19 00:17:44;;;;;;;27.15;22.98;;;18.70;99.90;;;;;;5090378;28;20114;-81
2021/06/19 00:20:19;;;;;;;34.60;23.95;;;18.70;99.90;;;;;;5091288;28;20024;-81
2021/06/19 00:22:45;;;;;;;27.23;23.10;;;18.70;99.90;;;;;;5090791;28;20429;-81
2021/06/19 00:25:12;;;;;;;38.45;30.88;;;18.70;99.90;;;;;;5092086;28;20031;-81
2021/06/19 00:27:38;;;;;;;40.05;29.50;;;18.70;99.90;;;;;;5092253;28;20036;-81
2021/06/19 00:30:06;;;;;;;33.38;26.48;;;18.70;99.90;;;;;;5091068;28;20042;-81
2021/06/19 00:32:32;;;;;;;28.40;23.33;;;18.70;99.90;;;;;;5090682;28;20024;-81
2021/06/19 00:34:58;;;;;;;36.15;27.23;;;18.70;99.90;;;;;;5076348;28;20024;-82
2021/06/19 00:37:23;;;;;;;41.40;30.30;;;18.70;99.90;;;;;;5071949;28;20484;-81
2021/06/19 00:39:49;;;;;;;37.08;30.33;;;18.70;99.90;;;;;;5070764;28;20058;-81
2021/06/19 00:42:21;;;;;;;33.83;26.25;;;18.80;99.90;;;;;;5071648;28;20028;-81
2021/06/19 00:44:48;;;;;;;36.85;27.08;;;18.80;99.90;;;;;;5071805;28;20044;-82
2021/06/19 00:47:14;;;;;;;38.35;29.63;;;18.60;99.90;;;;;;5070637;28;20021;-81
2021/06/19 00:49:40;;;;;;;40.55;29.05;;;18.70;99.90;;;;;;5070663;28;20020;-82
2021/06/19 00:52:06;;;;;;;35.55;26.25;;;18.60;99.90;;;;;;5090722;28;20024;-82
2021/06/19 00:54:33;;;;;;;33.17;26.52;;;18.60;99.90;;;;;;5092157;28;20099;-82
2021/06/19 00:56:59;;;;;;;33.22;27.65;;;18.60;99.90;;;;;;5090777;28;20024;-82
2021/06/19 00:59:25;;;;;;;43.60;32.35;;;18.50;99.90;;;;;;5090624;28;20028;-81
2021/06/19 01:01:50;;;;;;;34.65;29.40;;;18.50;99.90;;;;;;5090238;28;20059;-82
2021/06/19 01:04:16;;;;;;;36.53;29.75;;;18.50;99.90;;;;;;5091508;28;20117;-81
2021/06/19 01:06:42;;;;;;;36.20;30.00;;;18.50;99.90;;;;;;5091921;28;20052;-82
2021/06/19 01:09:09;;;;;;;39.60;32.60;;;18.50;99.90;;;;;;5089808;28;20395;-82
2021/06/19 01:11:38;;;;;;;37.88;29.80;;;18.40;99.90;;;;;;5095428;28;20049;-82
2021/06/19 01:14:05;;;;;;;34.10;28.33;;;18.40;99.90;;;;;;5095914;28;20028;-82
2021/06/19 01:16:32;;;;;;;39.55;31.30;;;18.40;99.90;;;;;;5095605;28;20025;-81
2021/06/19 01:18:57;;;;;;;49.83;33.42;;;18.40;99.90;;;;;;5096024;28;20032;-82
2021/06/19 01:21:25;;;;;;;32.92;24.60;;;18.30;99.90;;;;;;5094237;28;20050;-81
2021/06/19 01:23:53;;;;;;;39.63;29.27;;;18.30;99.90;;;;;;5094488;28;20028;-82
2021/06/19 01:26:25;;;;;;;32.60;25.98;;;18.30;99.90;;;;;;5094899;28;20020;-82
2021/06/19 01:28:52;;;;;;;36.05;27.60;;;18.20;99.90;;;;;;5095864;28;20110;-82
2021/06/19 01:31:17;;;;;;;35.00;27.92;;;18.20;99.90;;;;;;5093951;28;20017;-82
2021/06/19 01:33:45;;;;;;;30.75;25.63;;;18.20;99.90;;;;;;5094553;28;20043;-82
2021/06/19 01:36:12;;;;;;;34.78;26.90;;;18.10;99.90;;;;;;5094290;28;20392;-82
2021/06/19 01:38:47;;;;;;;33.85;26.27;;;18.10;99.90;;;;;;5095367;28;20024;-83
2021/06/19 01:41:21;;;;;;;36.70;28.95;;;18.00;99.90;;;;;;5094370;28;20040;-82
2021/06/19 01:43:48;;;;;;;30.80;25.13;;;18.00;99.90;;;;;;5095283;28;20053;-82
2021/06/19 01:46:15;;;;;;;32.58;25.23;;;18.00;99.90;;;;;;5094147;28;20035;-82
2021/06/19 01:48:41;;;;;;;33.63;27.67;;;17.90;99.90;;;;;;5094026;28;20111;-83
2021/06/19 01:51:09;;;;;;;34.00;27.35;;;17.90;99.90;;;;;;5095126;28;20154;-82
2021/06/19 01:53:44;;;;;;;34.65;30.70;;;17.80;99.90;;;;;;5095023;28;20031;-83
2021/06/19 01:56:11;;;;;;;33.20;29.15;;;17.80;99.90;;;;;;5095218;28;20031;-82
2021/06/19 01:58:37;;;;;;;35.63;28.17;;;17.80;99.90;;;;;;5093008;28;20119;-82
2021/06/19 02:01:04;;;;;;;34.50;27.33;;;17.70;99.90;;;;;;5093826;28;20107;-82
2021/06/19 02:03:30;;;;;;;42.38;31.08;;;17.70;99.90;;;;;;5093524;28;20024;-82
2021/06/19 02:05:55;;;;;;;43.17;32.80;;;17.70;99.90;;;;;;5093737;28;20023;-82
2021/06/19 02:08:21;;;;;;;39.55;29.73;;;17.70;99.90;;;;;;5093741;28;20034;-82
2021/06/19 02:10:48;;;;;;;34.88;27.52;;;17.60;99.90;;;;;;5094816;28;20095;-82
2021/06/19 02:13:14;;;;;;;31.75;25.05;;;17.60;99.90;;;;;;5094562;28;20024;-82
2021/06/19 02:15:42;;;;;;;31.98;25.98;;;17.60;99.90;;;;;;5092703;28;20396;-82
2021/06/19 02:18:08;;;;;;;37.53;29.27;;;17.60;99.90;;;;;;5093490;28;20060;-82
2021/06/19 02:20:34;;;;;;;33.95;26.38;;;17.60;99.90;;;;;;5094579;28;20439;-82
2021/06/19 02:23:00;;;;;;;40.38;29.48;;;17.60;99.90;;;;;;5093089;28;20433;-82
2021/06/19 02:25:29;;;;;;;34.92;28.08;;;17.50;99.90;;;;;;5094606;28;20479;-81
2021/06/19 02:27:57;;;;;;;32.13;27.35;;;17.50;99.90;;;;;;5094810;28;20395;-82
2021/06/19 02:30:35;;;;;;;36.42;28.15;;;17.50;99.90;;;;;;5093357;28;20024;-82
2021/06/19 02:33:00;;;;;;;35.85;29.08;;;17.50;99.90;;;;;;5093933;28;20030;-82
2021/06/19 02:35:30;;;;;;;35.20;27.38;;;17.40;99.90;;;;;;5094564;28;20024;-82
2021/06/19 02:37:56;;;;;;;41.38;31.40;;;17.50;99.90;;;;;;5092976;28;20116;-82
2021/06/19 02:40:22;;;;;;;43.00;32.85;;;17.50;99.90;;;;;;5094408;28;20031;-81
2021/06/19 02:42:48;;;;;;;36.30;30.27;;;17.50;99.90;;;;;;5092732;28;20027;-81
2021/06/19 02:45:14;;;;;;;36.45;29.52;;;17.50;99.90;;;;;;5094213;28;20032;-82
2021/06/19 02:47:52;;;;;;;35.05;27.38;;;17.50;99.90;;;;;;5094131;28;20016;-81
2021/06/19 02:50:20;;;;;;;33.50;27.92;;;17.50;99.90;;;;;;5089016;28;20475;-82
2021/06/19 02:52:46;;;;;;;35.08;27.63;;;17.40;99.90;;;;;;5093860;28;20032;-83
2021/06/19 02:55:15;;;;;;;36.97;30.17;;;17.40;99.90;;;;;;5092748;28;20024;-82
2021/06/19 02:57:40;;;;;;;40.05;29.30;;;17.40;99.90;;;;;;5092795;28;20519;-82
2021/06/19 03:00:12;;;;;;;32.13;26.85;;;17.40;99.90;;;;;;5092738;28;20059;-82
2021/06/19 03:02:37;;;;;;;30.45;26.20;;;17.40;99.90;;;;;;5092372;28;20028;-81
2021/06/19 03:05:08;;;;;;;34.67;28.45;;;17.40;99.90;;;;;;5094525;28;20020;-82
2021/06/19 03:07:33;;;;;;;32.05;26.80;;;17.30;99.90;;;;;;5081362;28;20032;-82
2021/06/19 03:09:59;;;;;;;35.22;26.48;;;17.30;99.90;;;;;;5072295;28;20418;-82
2021/06/19 03:12:27;;;;;;;36.15;27.58;;;17.30;99.90;;;;;;5073238;28;20060;-82
2021/06/19 03:14:53;;;;;;;33.50;27.58;;;17.20;99.90;;;;;;5073097;28;20024;-82
2021/06/19 03:17:19;;;;;;;32.00;25.73;;;17.20;99.90;;;;;;5072106;28;20028;-81
2021/06/19 03:19:45;;;;;;;34.58;28.23;;;17.20;99.90;;;;;;5073343;28;20020;-81
2021/06/19 03:22:10;;;;;;;34.42;27.85;;;17.20;99.90;;;;;;5071796;28;20477;-82
2021/06/19 03:24:40;;;;;;;32.20;27.35;;;17.30;99.90;;;;;;5084013;28;20510;-82
2021/06/19 03:27:07;;;;;;;52.13;38.33;;;17.30;99.90;;;;;;5092030;28;20096;-83
2021/06/19 03:29:33;;;;;;;54.35;39.08;;;17.30;99.90;;;;;;5093418;28;20106;-82
2021/06/19 03:31:59;;;;;;;58.38;46.60;;;17.30;99.90;;;;;;5092848;28;20100;-82
2021/06/19 03:34:24;;;;;;;52.20;38.85;;;17.30;99.90;;;;;;5092903;28;20433;-83
2021/06/19 03:36:52;;;;;;;54.85;41.30;;;17.40;99.90;;;;;;5093266;28;20479;-83
2021/06/19 03:39:18;;;;;;;49.42;37.30;;;17.50;99.90;;;;;;5093370;28;20391;-82
2021/06/19 03:41:45;;;;;;;56.28;41.20;;;17.50;99.90;;;;;;5077607;28;20028;-82
2021/06/19 03:44:11;;;;;;;45.45;35.97;;;17.60;99.90;;;;;;5072817;28;20051;-83
2021/06/19 03:46:39;;;;;;;54.17;40.70;;;17.60;99.90;;;;;;5071602;28;20017;-82
2021/06/19 03:49:05;;;;;;;48.92;35.92;;;17.60;99.90;;;;;;5072098;28;20040;-82
2021/06/19 03:51:30;;;;;;;48.10;34.85;;;17.70;99.90;;;;;;5092745;28;20463;-82
2021/06/19 03:53:56;;;;;;;43.80;32.70;;;17.70;99.90;;;;;;5092897;28;20110;-83
2021/06/19 03:56:21;;;;;;;45.55;37.45;;;17.80;99.90;;;;;;5092921;28;20035;-82
2021/06/19 03:58:47;;;;;;;52.17;40.75;;;17.90;99.90;;;;;;5092006;28;20035;-83
2021/06/19 04:01:13;;;;;;;43.25;34.03;;;17.80;99.90;;;;;;5091257;28;20105;-82
2021/06/19 04:03:39;;;;;;;38.20;31.88;;;17.90;99.90;;;;;;5092710;28;20525;-82
2021/06/19 04:06:04;;;;;;;42.85;35.03;;;17.80;99.90;;;;;;5092757;28;20081;-82
2021/06/19 04:08:30;;;;;;;38.83;32.05;;;17.90;99.90;;;;;;5092676;28;20028;-82
2021/06/19 04:10:55;;;;;;;37.20;31.27;;;17.90;99.90;;;;;;5092511;28;20464;-82
2021/06/19 04:13:21;;;;;;;34.88;28.95;;;18.00;99.90;;;;;;5090615;28;20024;-82
2021/06/19 04:15:46;;;;;;;33.13;29.52;;;18.00;99.90;;;;;;5090415;28;20114;-82
2021/06/19 04:18:12;;;;;;;38.08;26.58;;;18.10;99.90;;;;;;5092518;28;20028;-82
2021/06/19 04:20:38;;;;;;;33.28;26.45;;;18.00;99.90;;;;;;5092531;28;20028;-82
2021/06/19 04:23:03;;;;;;;44.20;29.02;;;18.10;99.90;;;;;;5090903;28;20027;-82
2021/06/19 04:25:29;;;;;;;41.13;32.00;;;18.10;99.90;;;;;;5092273;28;20059;-82
2021/06/19 04:27:56;;;;;;;43.97;33.28;;;18.10;99.90;;;;;;5092374;28;20154;-82
2021/06/19 04:30:24;;;;;;;38.55;31.30;;;18.20;99.90;;;;;;5091037;28;20020;-81
2021/06/19 04:32:51;;;;;;;43.92;31.98;;;18.20;99.90;;;;;;5089869;28;20031;-82
2021/06/19 04:35:17;;;;;;;41.05;33.38;;;18.20;99.90;;;;;;5091001;28;20042;-82
2021/06/19 04:37:44;;;;;;;41.10;33.50;;;18.30;99.90;;;;;;5092292;28;20050;-82
2021/06/19 04:43:04;;;;;;;35.95;29.63;;;18.40;99.90;;;;;;5092205;28;20031;-82
2021/06/19 04:45:30;;;;;;;40.60;35.03;;;18.40;99.90;;;;;;5089917;28;20035;-82
2021/06/19 04:47:57;;;;;;;48.70;34.80;;;18.50;99.90;;;;;;5092147;28;20410;-82
2021/06/19 04:50:22;;;;;;;46.67;37.53;;;18.60;99.90;;;;;;5083895;28;20028;-82
2021/06/19 04:52:48;;;;;;;60.55;48.42;;;18.70;99.90;;;;;;5090505;28;20043;-82
2021/06/19 04:55:16;;;;;;;68.20;51.53;;;18.80;99.90;;;;;;5092078;28;20024;-82
2021/06/19 04:57:43;;;;;;;64.47;53.13;;;18.80;99.90;;;;;;5090802;28;20024;-82
2021/06/19 05:00:12;;;;;;;61.67;49.53;;;18.90;99.90;;;;;;5090637;28;20024;-82
2021/06/19 05:02:38;;;;;;;58.35;41.78;;;18.90;99.90;;;;;;5091668;28;20054;-82
2021/06/19 05:05:05;;;;;;;67.47;55.30;;;19.00;99.90;;;;;;5091411;28;20029;-82
2021/06/19 05:07:33;;;;;;;69.38;55.80;;;19.00;99.90;;;;;;5071709;28;20027;-82
2021/06/19 05:09:58;;;;;;;87.93;69.65;;;19.10;99.90;;;;;;5071582;28;20107;-82
2021/06/19 05:12:24;;;;;;;130.52;110.00;;;19.10;99.90;;;;;;5070102;28;20119;-82
2021/06/19 05:14:49;;;;;;;55.95;48.65;;;19.30;99.90;;;;;;5070379;28;20020;-82
2021/06/19 05:17:15;;;;;;;94.18;70.20;;;19.40;99.90;;;;;;5071725;28;20468;-81
2021/06/19 05:19:41;;;;;;;65.53;52.53;;;19.50;99.90;;;;;;5070344;28;20036;-82
2021/06/19 05:22:07;;;;;;;76.65;62.33;;;19.70;99.90;;;;;;5070629;28;20029;-83
2021/06/19 05:24:33;;;;;;;66.60;48.05;;;19.80;99.90;;;;;;5070191;28;20082;-82
2021/06/19 05:26:59;;;;;;;67.63;56.17;;;19.90;99.90;;;;;;5071565;28;20016;-82
2021/06/19 05:29:24;;;;;;;62.97;49.67;;;20.00;99.90;;;;;;5072203;28;20017;-83
2021/06/19 05:31:50;;;;;;;57.67;48.45;;;20.10;99.90;;;;;;5071176;28;20389;-82
2021/06/19 05:34:16;;;;;;;53.90;44.33;;;20.30;99.90;;;;;;5071418;28;20052;-82
2021/06/19 05:36:41;;;;;;;64.22;50.65;;;20.50;99.90;;;;;;5070272;28;20024;-83
2021/06/19 05:39:08;;;;;;;59.72;49.28;;;20.50;99.90;;;;;;5070677;28;20032;-83
2021/06/19 05:41:33;;;;;;;48.08;37.03;;;20.90;99.90;;;;;;5071238;28;20021;-83
2021/06/19 05:43:59;;;;;;;48.60;38.47;;;20.90;99.90;;;;;;5071473;28;20036;-82
2021/06/19 05:46:24;;;;;;;50.42;36.92;;;21.00;99.90;;;;;;5071385;28;20025;-82
2021/06/19 05:48:56;;;;;;;42.08;32.90;;;21.20;99.90;;;;;;5078751;28;20027;-83
2021/06/19 05:51:21;;;;;;;42.15;34.20;;;21.10;99.90;;;;;;5090387;28;20025;-83
2021/06/19 05:53:47;;;;;;;48.85;35.78;;;21.40;99.90;;;;;;5090195;28;20039;-83
2021/06/19 05:56:12;;;;;;;44.60;35.50;;;21.40;99.90;;;;;;5091913;28;20063;-83
2021/06/19 05:58:38;;;;;;;40.50;35.10;;;21.90;99.90;;;;;;5095154;28;20031;-82
2021/06/19 06:01:03;;;;;;;38.00;29.63;;;22.00;99.90;;;;;;5093115;28;20452;-83
2021/06/19 06:03:29;;;;;;;40.13;24.50;;;22.00;99.90;;;;;;5094418;28;20104;-83
2021/06/19 06:05:54;;;;;;;37.53;21.60;;;22.10;99.90;;;;;;5094774;28;20070;-84
2021/06/19 06:08:20;;;;;;;29.95;21.95;;;22.20;99.90;;;;;;5095743;28;20107;-82
2021/06/19 06:10:45;;;;;;;25.13;19.45;;;22.40;99.90;;;;;;5097842;28;20024;-83
2021/06/19 06:13:11;;;;;;;27.30;19.40;;;22.50;99.90;;;;;;5094194;28;20094;-83
2021/06/19 06:15:36;;;;;;;29.98;17.88;;;22.50;99.90;;;;;;5095915;28;20024;-82
2021/06/19 06:18:02;;;;;;;31.65;19.35;;;22.70;99.90;;;;;;5094726;28;20053;-84
2021/06/19 06:20:28;;;;;;;31.40;20.52;;;22.90;99.90;;;;;;5094648;28;20476;-83
2021/06/19 06:22:53;;;;;;;27.38;19.83;;;23.10;99.90;;;;;;5094200;28;20032;-83
2021/06/19 06:25:19;;;;;;;32.08;19.30;;;23.20;99.90;;;;;;5094391;28;20020;-83
2021/06/19 06:27:44;;;;;;;31.00;18.08;;;23.20;99.90;;;;;;5096156;28;20024;-83
2021/06/19 06:30:11;;;;;;;38.53;18.45;;;23.30;99.90;;;;;;5094112;28;20034;-83
2021/06/19 06:32:37;;;;;;;28.90;17.33;;;23.40;99.90;;;;;;5074941;28;20024;-84
2021/06/19 06:35:05;;;;;;;30.80;17.33;;;23.50;99.90;;;;;;5076727;28;20082;-85
2021/06/19 06:37:31;;;;;;;25.75;16.25;;;23.70;99.90;;;;;;5077906;28;20028;-82
2021/06/19 06:39:56;;;;;;;28.35;15.77;;;23.60;99.90;;;;;;5076572;28;20400;-85
2021/06/19 06:42:22;;;;;;;32.42;16.20;;;23.60;99.90;;;;;;5075436;28;20127;-84
2021/06/19 06:44:48;;;;;;;49.25;14.50;;;23.80;99.90;;;;;;5077827;28;20028;-83
2021/06/19 06:47:13;;;;;;;23.33;12.82;;;23.80;99.90;;;;;;5077318;28;20499;-85
2021/06/19 06:49:39;;;;;;;22.35;11.73;;;24.00;99.90;;;;;;5076447;28;20028;-83
2021/06/19 06:52:05;;;;;;;25.80;12.32;;;24.10;99.90;;;;;;5076014;28;20035;-84
2021/06/19 06:54:38;;;;;;;40.92;10.93;;;24.00;99.90;;;;;;5077348;28;20058;-84
2021/06/19 06:57:07;;;;;;;26.20;10.27;;;24.30;99.90;;;;;;5077711;28;20063;-84
2021/06/19 06:59:32;;;;;;;23.50;9.13;;;24.40;99.90;;;;;;5074682;28;20035;-83
2021/06/19 07:01:58;;;;;;;16.88;7.65;;;24.50;99.90;;;;;;5072956;28;20403;-83
2021/06/19 07:04:24;;;;;;;23.63;8.38;;;24.90;99.90;;;;;;5072776;28;20028;-83
2021/06/19 07:06:49;;;;;;;23.48;9.40;;;25.00;99.90;;;;;;5073158;28;20066;-84
2021/06/19 07:09:15;;;;;;;23.58;8.20;;;25.00;99.90;;;;;;5072883;28;20546;-84
2021/06/19 07:11:41;;;;;;;13.93;7.90;;;25.10;99.90;;;;;;5073269;28;20031;-83
2021/06/19 07:14:06;;;;;;;16.40;8.90;;;24.90;99.90;;;;;;5071807;28;20059;-84
2021/06/19 07:16:32;;;;;;;18.60;8.50;;;24.80;99.90;;;;;;5073440;28;20032;-84
2021/06/19 07:18:59;;;;;;;17.70;8.45;;;24.60;99.90;;;;;;5073267;28;20400;-83
2021/06/19 07:21:25;;;;;;;25.90;9.18;;;24.40;99.90;;;;;;5073442;28;20023;-83
2021/06/19 07:23:51;;;;;;;23.30;8.90;;;24.60;99.90;;;;;;5073331;28;20025;-85
2021/06/19 07:26:17;;;;;;;26.95;8.65;;;24.80;99.90;;;;;;5071853;28;20028;-83
2021/06/19 07:28:44;;;;;;;26.60;8.90;;;24.70;99.90;;;;;;5073815;28;20031;-83
2021/06/19 07:31:10;;;;;;;27.27;9.25;;;24.80;99.90;;;;;;5082679;28;20437;-85
2021/06/19 07:33:36;;;;;;;14.77;8.02;;;24.80;99.90;;;;;;5087822;28;20039;-84
2021/06/19 07:36:03;;;;;;;20.67;7.90;;;24.90;99.90;;;;;;5080063;28;20499;-86
2021/06/19 07:38:30;;;;;;;14.02;8.18;;;25.00;99.90;;;;;;5085368;28;20032;-85
2021/06/19 07:40:56;;;;;;;18.45;9.80;;;25.10;99.90;;;;;;5088379;28;20032;-85
2021/06/19 07:43:23;;;;;;;21.15;9.60;;;25.10;99.90;;;;;;5079998;28;20078;-87
2021/06/19 07:45:49;;;;;;;15.75;9.85;;;25.10;99.90;;;;;;5087805;28;20035;-84
2021/06/19 07:48:15;;;;;;;17.67;8.05;;;24.90;99.90;;;;;;5079063;28;20017;-86
2021/06/19 07:50:41;;;;;;;20.75;9.30;;;24.90;99.90;;;;;;5087992;28;20028;-88
2021/06/19 07:53:07;;;;;;;16.08;8.90;;;24.80;99.90;;;;;;5087098;28;20024;-85
2021/06/19 07:55:33;;;;;;;18.08;8.60;;;24.90;99.90;;;;;;5083083;28;20111;-85
2021/06/19 07:57:59;;;;;;;15.45;8.73;;;25.10;99.90;;;;;;5077719;28;20115;-85
2021/06/19 08:00:25;;;;;;;18.10;9.00;;;25.20;99.90;;;;;;5087257;28;20421;-84
2021/06/19 08:02:51;;;;;;;18.58;9.65;;;25.20;99.90;;;;;;5077374;28;20031;-85
2021/06/19 08:05:16;;;;;;;17.33;8.93;;;25.20;99.90;;;;;;5070518;28;20029;-84
2021/06/19 08:07:42;;;;;;;17.23;8.55;;;25.10;99.90;;;;;;5069188;28;20492;-84
2021/06/19 08:10:09;;;;;;;13.80;7.88;;;25.30;99.90;;;;;;5084920;28;20020;-84
2021/06/19 08:12:35;;;;;;;21.63;9.00;;;25.50;99.90;;;;;;5082462;28;20500;-84
2021/06/19 08:15:03;;;;;;;16.75;8.65;;;25.90;99.90;;;;;;5084269;28;20433;-85
2021/06/19 08:17:28;;;;;;;19.02;8.63;;;26.20;99.90;;;;;;5080654;28;20032;-86
2021/06/19 08:19:54;;;;;;;25.75;9.70;;;25.90;99.90;;;;;;5083102;28;20498;-85
2021/06/19 08:22:19;;;;;;;17.17;8.73;;;26.10;99.90;;;;;;5087527;28;20500;-85
2021/06/19 08:24:47;;;;;;;16.42;8.52;;;26.10;99.90;;;;;;5086801;28;20032;-81
2021/06/19 08:27:13;;;;;;;22.05;10.65;;;26.40;99.90;;;;;;5092349;28;20487;-84
2021/06/19 08:29:39;;;;;;;23.38;10.20;;;26.50;99.90;;;;;;5087322;28;20025;-83
2021/06/19 08:32:08;;;;;;;19.50;10.82;;;26.00;99.90;;;;;;5070282;28;20027;-84
2021/06/19 08:34:34;;;;;;;22.05;11.88;;;25.70;99.90;;;;;;5072104;28;20561;-83
2021/06/19 08:36:59;;;;;;;23.92;11.18;;;25.40;99.90;;;;;;5072215;28;20032;-82
2021/06/19 08:39:25;;;;;;;20.00;10.48;;;25.70;99.90;;;;;;5070572;28;20519;-83
2021/06/19 08:41:55;;;;;;;30.77;11.30;;;25.70;99.90;;;;;;5071707;28;20028;-84
2021/06/19 08:44:25;;;;;;;23.13;12.70;;;26.00;99.90;;;;;;5070674;28;20455;-86
2021/06/19 08:46:52;;;;;;;25.83;13.07;;;26.10;99.90;;;;;;5072507;28;20031;-83
2021/06/19 08:49:19;;;;;;;23.50;13.90;;;26.00;99.90;;;;;;5089702;28;20024;-82
2021/06/19 08:51:45;;;;;;;33.47;13.65;;;25.50;99.90;;;;;;5091691;28;20465;-83
2021/06/19 08:54:11;;;;;;;25.88;14.75;;;25.40;99.90;;;;;;5091899;28;20373;-82
2021/06/19 08:56:38;;;;;;;28.48;16.50;;;25.10;99.90;;;;;;5091952;28;20077;-82
2021/06/19 08:59:03;;;;;;;33.15;16.45;;;24.80;99.90;;;;;;5090611;28;20020;-81
2021/06/19 09:01:29;;;;;;;27.85;16.15;;;24.70;99.90;;;;;;5091536;28;20028;-82
2021/06/19 09:03:55;;;;;;;25.83;16.50;;;24.90;99.90;;;;;;5084551;28;20546;-83
2021/06/19 09:06:25;;;;;;;25.13;16.50;;;25.00;99.90;;;;;;5070379;28;20115;-82
2021/06/19 09:09:09;;;;;;;30.83;17.90;;;24.90;99.90;;;;;;5071737;28;20100;-82
2021/06/19 09:11:45;;;;;;;27.77;16.65;;;24.80;99.90;;;;;;5069870;28;20020;-83
2021/06/19 09:14:18;;;;;;;33.13;20.05;;;24.60;99.90;;;;;;5070295;28;20028;-82
2021/06/19 09:17:05;;;;;;;27.93;18.80;;;24.50;99.90;;;;;;5071541;28;20032;-82
2021/06/19 09:19:33;;;;;;;35.63;19.10;;;24.40;99.90;;;;;;5071135;28;20036;-83
2021/06/19 09:22:20;;;;;;;23.98;18.42;;;24.40;99.90;;;;;;5070593;28;20032;-82
2021/06/19 09:24:50;;;;;;;29.30;17.98;;;23.80;99.90;;;;;;5071693;28;20055;-82
2021/06/19 09:27:32;;;;;;;32.05;18.75;;;23.80;99.90;;;;;;5072281;28;20036;-82
2021/06/19 09:30:24;;;;;;;33.60;20.95;;;23.60;99.90;;;;;;5089585;28;20048;-82
2021/06/19 09:33:05;;;;;;;36.80;21.15;;;23.60;99.90;;;;;;5095428;28;20028;-82
2021/06/19 09:35:39;;;;;;;33.42;20.70;;;23.60;99.90;;;;;;5095415;28;20361;-83
2021/06/19 09:38:14;;;;;;;32.50;18.70;;;23.80;99.90;;;;;;5085481;28;20020;-82
2021/06/19 09:40:39;;;;;;;27.10;17.88;;;24.10;99.90;;;;;;5075268;28;20495;-81
2021/06/19 09:43:14;;;;;;;27.15;15.15;;;24.10;99.90;;;;;;5074761;28;20020;-81
2021/06/19 09:45:46;;;;;;;22.85;15.35;;;24.00;99.90;;;;;;5073930;28;20078;-82
2021/06/19 09:48:33;;;;;;;23.83;15.85;;;23.70;99.90;;;;;;5081682;28;20020;-81
2021/06/19 09:51:24;;;;;;;24.45;16.92;;;23.50;99.90;;;;;;5086854;28;20788;-81
2021/06/19 09:54:04;;;;;;;25.40;16.10;;;23.50;99.90;;;;;;5077686;28;20487;-83
2021/06/19 09:56:42;;;;;;;15.13;11.20;;;23.80;99.90;;;;;;5073688;28;20028;-82
2021/06/19 09:59:16;;;;;;;18.13;10.63;;;24.10;99.90;;;;;;5087882;28;20028;-82
2021/06/19 10:01:42;;;;;;;13.10;8.68;;;24.20;99.90;;;;;;5089318;28;20022;-82
2021/06/19 10:04:15;;;;;;;21.60;10.30;;;24.30;99.90;;;;;;5081110;28;20021;-82
2021/06/19 10:06:41;;;;;;;20.83;11.15;;;24.70;99.90;;;;;;5082592;28;20043;-80
2021/06/19 10:09:07;;;;;;;16.73;10.93;;;24.40;99.90;;;;;;5090383;28;20024;-81
2021/06/19 10:11:33;;;;;;;14.20;11.57;;;24.10;99.90;;;;;;5081578;28;20028;-82
2021/06/19 10:14:00;;;;;;;23.45;10.85;;;24.00;99.90;;;;;;5081892;28;20035;-81
2021/06/19 10:16:29;;;;;;;23.45;12.85;;;23.80;99.90;;;;;;5090036;28;20111;-84
2021/06/19 10:18:56;;;;;;;23.38;13.02;;;23.60;99.90;;;;;;5088922;28;20373;-81
2021/06/19 10:21:25;;;;;;;21.98;14.90;;;23.90;99.90;;;;;;5091756;28;20020;-83
2021/06/19 10:23:50;;;;;;;16.15;12.45;;;24.40;99.90;;;;;;5094597;28;20020;-83
2021/06/19 10:26:22;;;;;;;20.50;12.23;;;24.50;99.90;;;;;;5093469;28;20020;-82
2021/06/19 10:28:52;;;;;;;21.63;16.50;;;24.40;99.90;;;;;;5088307;28;20020;-82
2021/06/19 10:31:18;;;;;;;21.08;17.40;;;23.60;99.90;;;;;;5072799;28;20028;-82
2021/06/19 10:33:44;;;;;;;32.47;22.10;;;23.10;99.90;;;;;;5074253;28;20395;-81
2021/06/19 10:36:11;;;;;;;25.50;21.73;;;22.80;99.90;;;;;;5073069;28;20021;-80
2021/06/19 10:38:52;;;;;;;26.10;21.33;;;22.70;99.90;;;;;;5075364;28;20032;-81
2021/06/19 10:41:20;;;;;;;25.88;21.20;;;22.70;99.90;;;;;;5083541;28;20055;-80
2021/06/19 10:43:51;;;;;;;33.70;25.63;;;22.50;99.90;;;;;;5080033;28;20024;-83
2021/06/19 10:46:29;;;;;;;29.02;23.38;;;22.40;99.90;;;;;;5084631;28;20035;-83
2021/06/19 10:48:55;;;;;;;41.33;27.38;;;22.50;99.90;;;;;;5087551;28;20028;-82
2021/06/19 10:51:24;;;;;;;38.47;25.40;;;22.50;99.90;;;;;;5086627;28;20498;-84
2021/06/19 10:54:18;;;;;;;37.30;24.70;;;22.40;99.90;;;;;;5080978;28;20096;-81
2021/06/19 10:56:52;;;;;;;31.27;22.52;;;22.60;99.90;;;;;;5080159;28;21462;-83
2021/06/19 10:59:26;;;;;;;38.25;21.45;;;22.80;99.90;;;;;;5085041;28;20032;-82
2021/06/19 11:01:55;;;;;;;37.95;23.20;;;22.90;99.90;;;;;;5088219;28;20073;-83
2021/06/19 11:04:38;;;;;;;29.23;19.40;;;23.00;99.90;;;;;;5077745;28;20467;-82
2021/06/19 11:07:06;;;;;;;23.85;18.77;;;23.20;99.90;;;;;;5071169;28;20031;-83
2021/06/19 11:09:39;;;;;;;25.40;15.90;;;23.80;99.90;;;;;;5087973;28;20364;-83
2021/06/19 11:12:08;;;;;;;23.20;15.43;;;24.00;99.90;;;;;;5088112;28;20024;-82
2021/06/19 11:14:47;;;;;;;22.95;14.63;;;23.80;99.90;;;;;;5079576;28;20395;-81
2021/06/19 11:17:21;;;;;;;20.92;13.73;;;23.50;99.90;;;;;;5080170;28;20020;-81
2021/06/19 11:19:48;;;;;;;24.63;14.48;;;23.20;99.90;;;;;;5070696;28;20085;-83
2021/06/19 11:22:23;;;;;;;24.10;14.45;;;23.00;99.90;;;;;;5086016;28;20089;-82
2021/06/19 11:25:14;;;;;;;25.25;13.57;;;23.10;99.90;;;;;;5079502;28;20176;-81
2021/06/19 11:27:52;;;;;;;20.38;13.88;;;23.30;99.90;;;;;;5083769;28;20016;-80
2021/06/19 11:30:33;;;;;;;22.00;12.98;;;23.20;99.90;;;;;;5087731;28;20024;-82
2021/06/19 11:33:20;;;;;;;21.42;13.23;;;23.40;99.90;;;;;;5071012;28;20021;-82
2021/06/19 11:36:10;;;;;;;21.63;12.63;;;23.50;99.90;;;;;;5079070;28;20022;-81
2021/06/19 11:38:56;;;;;;;28.85;12.82;;;23.40;99.90;;;;;;5082198;28;20063;-82
2021/06/19 11:41:32;;;;;;;17.65;10.70;;;23.60;99.90;;;;;;5092988;28;20529;-83
2021/06/19 11:43:58;;;;;;;19.55;9.40;;;23.70;99.90;;;;;;5081441;28;20037;-80
2021/06/19 11:46:25;;;;;;;12.30;8.35;;;23.60;99.90;;;;;;5076149;28;20651;-83
2021/06/19 11:48:59;;;;;;;13.05;7.60;;;23.60;99.90;;;;;;5092269;28;20052;-82
2021/06/19 11:51:27;;;;;;;11.82;7.68;;;23.60;99.90;;;;;;5081971;28;20039;-81
2021/06/19 11:53:53;;;;;;;11.32;7.55;;;23.70;99.90;;;;;;5071641;28;20511;-81
2021/06/19 11:56:26;;;;;;;12.95;8.15;;;23.90;99.90;;;;;;5069034;28;20427;-81
2021/06/19 11:58:59;;;;;;;11.60;6.68;;;23.80;99.90;;;;;;5084481;28;20080;-81
2021/06/19 12:01:33;;;;;;;12.40;7.25;;;23.80;99.90;;;;;;5091083;28;20388;-87
2021/06/19 12:04:03;;;;;;;15.68;7.25;;;23.70;99.90;;;;;;5092727;28;20035;-82
2021/06/19 12:06:48;;;;;;;10.52;7.03;;;23.80;99.90;;;;;;5091390;28;20071;-80
2021/06/19 12:09:31;;;;;;;11.70;5.68;;;24.40;99.90;;;;;;5092724;28;20029;-82
2021/06/19 12:12:10;;;;;;;13.70;7.32;;;24.10;99.90;;;;;;5075115;28;20109;-81
2021/06/19 12:14:38;;;;;;;12.65;6.95;;;24.10;99.90;;;;;;5072078;28;20033;-82
2021/06/19 12:17:09;;;;;;;10.75;7.10;;;24.50;99.90;;;;;;5072293;28;20093;-82
2021/06/19 12:19:38;;;;;;;10.98;6.30;;;24.80;99.90;;;;;;5072326;28;20017;-81
2021/06/19 12:22:05;;;;;;;16.05;7.70;;;25.30;99.90;;;;;;5070557;28;20119;-81
2021/06/19 12:24:37;;;;;;;13.75;7.53;;;25.40;99.90;;;;;;5072187;28;20107;-80
2021/06/19 12:27:17;;;;;;;12.52;6.60;;;25.10;99.90;;;;;;5071026;28;20070;-79
2021/06/19 12:29:47;;;;;;;10.65;6.40;;;24.80;99.90;;;;;;5091779;28;20020;-80
2021/06/19 12:32:26;;;;;;;13.43;7.30;;;24.30;99.90;;;;;;5090754;28;20020;-80
2021/06/19 12:34:56;;;;;;;12.70;6.82;;;24.10;99.90;;;;;;5092164;28;20024;-81
2021/06/19 12:37:24;;;;;;;10.98;6.57;;;24.20;99.90;;;;;;5092305;28;20032;-80